Time;durP1;ratioP1;P1;durP2;ratioP2;P2;SDS_P1;SDS_P2;PMS_P1;PMS_P2;Temp;Humidity;BMP_temperature;BMP_pressure;BME280_temperature;BME280_humidity;BME280_pressure;Samples;Min_cycle;Max_cycle;Signal;HPM_P1;HPM_P2
2022/12/28 00:01:07;;;;;;;2.10;1.10;;;3.80;99.90;;;;;;5072907;28;20491;-60
2022/12/28 00:03:35;;;;;;;1.88;1.00;;;3.80;99.90;;;;;;5073634;28;20435;-61
2022/12/28 00:06:04;;;;;;;1.60;1.10;;;3.80;99.90;;;;;;5076542;28;20514;-60
2022/12/28 00:08:31;;;;;;;1.63;1.10;;;3.80;99.90;;;;;;5076946;28;20530;-60
2022/12/28 00:11:01;;;;;;;2.25;1.00;;;3.80;99.90;;;;;;5077829;28;20515;-60
2022/12/28 00:13:30;;;;;;;4.20;1.10;;;3.90;99.90;;;;;;5075815;28;20424;-60
2022/12/28 00:15:57;;;;;;;1.90;1.00;;;3.80;99.90;;;;;;5076102;28;20419;-59
2022/12/28 00:18:25;;;;;;;1.80;1.00;;;3.80;99.90;;;;;;5077128;28;20427;-60
2022/12/28 00:21:00;;;;;;;2.78;1.00;;;3.90;99.90;;;;;;5076410;28;20451;-59
2022/12/28 00:23:28;;;;;;;2.60;1.00;;;3.90;99.90;;;;;;5075611;28;20433;-59
2022/12/28 00:25:55;;;;;;;1.60;0.98;;;3.90;99.90;;;;;;5075249;28;20743;-60
2022/12/28 00:28:23;;;;;;;1.70;1.00;;;3.90;99.90;;;;;;5074914;28;20544;-60
2022/12/28 00:30:50;;;;;;;1.40;1.00;;;3.90;99.90;;;;;;5076842;28;20498;-59
2022/12/28 00:33:17;;;;;;;1.80;1.00;;;3.90;99.90;;;;;;5075815;28;20502;-59
2022/12/28 00:35:44;;;;;;;2.40;1.10;;;3.90;99.90;;;;;;5074942;28;20842;-59
2022/12/28 00:38:13;;;;;;;1.40;0.80;;;3.90;99.90;;;;;;5075866;28;20415;-59
2022/12/28 00:40:40;;;;;;;1.30;0.90;;;3.90;99.90;;;;;;5076284;28;20530;-61
2022/12/28 00:43:07;;;;;;;2.10;1.00;;;4.00;99.90;;;;;;5076612;28;20471;-61
2022/12/28 00:45:34;;;;;;;1.58;0.90;;;4.00;99.90;;;;;;5077061;28;20511;-59
2022/12/28 00:48:02;;;;;;;2.47;0.90;;;4.00;99.90;;;;;;5076313;28;20428;-59
2022/12/28 00:50:29;;;;;;;1.30;1.00;;;4.00;99.90;;;;;;5073086;28;20869;-59
2022/12/28 00:52:56;;;;;;;1.70;0.90;;;4.10;99.90;;;;;;5074252;28;20514;-59
2022/12/28 00:55:25;;;;;;;1.30;0.88;;;4.00;99.90;;;;;;5075975;28;20506;-59
2022/12/28 00:57:52;;;;;;;1.43;0.90;;;4.00;99.90;;;;;;5076551;28;20894;-59
2022/12/28 01:00:20;;;;;;;1.13;0.80;;;4.00;99.90;;;;;;5076042;28;20510;-59
2022/12/28 01:02:47;;;;;;;1.88;0.90;;;4.00;99.90;;;;;;5076423;28;20522;-59
2022/12/28 01:05:14;;;;;;;1.10;0.80;;;4.00;99.90;;;;;;5076163;28;20506;-59
2022/12/28 01:07:41;;;;;;;1.52;0.80;;;4.10;99.90;;;;;;5076287;28;20428;-63
2022/12/28 01:10:09;;;;;;;1.40;0.80;;;4.20;99.90;;;;;;5076408;28;20790;-60
2022/12/28 01:12:38;;;;;;;1.30;0.82;;;4.20;99.90;;;;;;5075489;28;20429;-59
2022/12/28 01:15:08;;;;;;;1.70;0.80;;;4.30;99.90;;;;;;5074648;28;20522;-59
2022/12/28 01:17:36;;;;;;;1.10;0.70;;;4.30;99.90;;;;;;5075930;28;20513;-60
2022/12/28 01:20:04;;;;;;;1.20;0.70;;;4.30;99.90;;;;;;5076519;28;20435;-59
2022/12/28 01:22:31;;;;;;;1.25;0.80;;;4.20;99.90;;;;;;5075400;28;20930;-59
2022/12/28 01:24:59;;;;;;;3.40;0.80;;;4.20;99.90;;;;;;5076216;28;20459;-60
2022/12/28 01:27:29;;;;;;;1.73;0.80;;;4.20;99.90;;;;;;5075243;28;20435;-61
2022/12/28 01:29:57;;;;;;;1.60;0.80;;;4.20;99.90;;;;;;5074479;28;20427;-61
2022/12/28 01:32:25;;;;;;;2.90;0.80;;;4.20;99.90;;;;;;5074440;28;20510;-60
2022/12/28 01:34:52;;;;;;;1.23;0.70;;;4.20;99.90;;;;;;5076382;28;20506;-59
2022/12/28 01:37:19;;;;;;;1.10;0.80;;;4.10;99.90;;;;;;5075918;28;20494;-59
2022/12/28 01:39:46;;;;;;;1.20;0.80;;;4.10;99.90;;;;;;5076018;28;20875;-60
2022/12/28 01:42:17;;;;;;;1.30;0.68;;;4.20;99.90;;;;;;5070936;28;20526;-60
2022/12/28 01:44:47;;;;;;;1.60;0.70;;;4.20;99.90;;;;;;5073060;28;20427;-60
2022/12/28 01:47:26;;;;;;;1.35;0.75;;;4.10;99.90;;;;;;5071032;28;20425;-59
2022/12/28 01:50:02;;;;;;;1.70;0.70;;;4.20;99.90;;;;;;5074372;28;20443;-59
2022/12/28 01:52:33;;;;;;;1.48;0.70;;;4.10;99.90;;;;;;5068625;28;20453;-64
2022/12/28 01:55:06;;;;;;;1.50;0.70;;;4.10;99.90;;;;;;5075353;28;20420;-59
2022/12/28 01:57:43;;;;;;;2.40;0.80;;;4.10;99.90;;;;;;5074722;28;20530;-59
2022/12/28 02:00:13;;;;;;;1.15;0.60;;;4.20;99.90;;;;;;5075323;28;20458;-59
2022/12/28 02:02:46;;;;;;;1.10;0.60;;;4.20;99.90;;;;;;5073318;28;20534;-59
2022/12/28 02:05:14;;;;;;;1.80;0.60;;;4.30;99.90;;;;;;5073896;28;20516;-60
2022/12/28 02:07:47;;;;;;;0.90;0.60;;;4.40;99.90;;;;;;5075190;28;20518;-59
2022/12/28 02:10:16;;;;;;;1.00;0.70;;;4.50;99.90;;;;;;5074513;28;20412;-60
2022/12/28 02:12:44;;;;;;;1.75;0.60;;;4.40;99.90;;;;;;5075511;28;20420;-60
2022/12/28 02:15:12;;;;;;;0.98;0.60;;;4.50;99.90;;;;;;5073712;28;20815;-60
2022/12/28 02:17:39;;;;;;;1.10;0.60;;;4.50;99.90;;;;;;5074740;28;20424;-60
2022/12/28 02:20:09;;;;;;;2.00;0.60;;;4.50;99.90;;;;;;5074575;28;20503;-60
2022/12/28 02:22:58;;;;;;;1.20;0.50;;;4.50;99.90;;;;;;5074371;28;20522;-60
2022/12/28 02:25:53;;;;;;;0.90;0.50;;;4.60;99.90;;;;;;5074836;28;20499;-60
2022/12/28 02:28:48;;;;;;;0.80;0.50;;;4.60;99.90;;;;;;5073981;28;20518;-59
2022/12/28 02:31:21;;;;;;;1.10;0.60;;;4.80;99.90;;;;;;5074422;28;20438;-59
2022/12/28 02:33:56;;;;;;;0.98;0.50;;;4.70;99.90;;;;;;5074140;28;20466;-60
2022/12/28 02:36:28;;;;;;;1.30;0.60;;;4.80;99.90;;;;;;5074435;28;20538;-60
2022/12/28 02:39:02;;;;;;;0.97;0.40;;;4.70;99.90;;;;;;5072523;28;20434;-60
2022/12/28 02:41:32;;;;;;;1.03;0.40;;;4.80;99.90;;;;;;5073134;28;20776;-60
2022/12/28 02:44:01;;;;;;;1.13;0.50;;;4.80;99.90;;;;;;5072647;28;21075;-60
2022/12/28 02:52:20;;;;;;;0.90;0.50;;;5.00;99.90;;;;;;5034467;28;20404;-60
2022/12/28 02:58:16;;;;;;;0.70;0.40;;;5.00;99.90;;;;;;5073752;28;20407;-60
2022/12/28 03:00:57;;;;;;;1.10;0.40;;;5.10;99.90;;;;;;5074776;28;20511;-60
2022/12/28 03:03:33;;;;;;;0.93;0.40;;;5.10;99.90;;;;;;5073940;28;20526;-60
2022/12/28 03:09:02;;;;;;;0.70;0.40;;;5.10;99.90;;;;;;5074536;28;20724;-60
2022/12/28 03:11:37;;;;;;;0.68;0.30;;;5.10;99.90;;;;;;5073850;28;20426;-59
2022/12/28 03:14:09;;;;;;;0.60;0.40;;;5.20;99.90;;;;;;5075259;28;20486;-59
2022/12/28 03:33:16;;;;;;;0.60;0.32;;;5.50;99.90;;;;;;5073156;28;20858;-60
2022/12/28 03:35:49;;;;;;;0.70;0.30;;;5.50;99.90;;;;;;5074248;28;21031;-61
2022/12/28 03:38:26;;;;;;;0.75;0.30;;;5.50;99.90;;;;;;5074599;28;20529;-60
2022/12/28 03:40:57;;;;;;;0.60;0.30;;;5.50;99.90;;;;;;5077434;28;20506;-59
2022/12/28 03:43:40;;;;;;;0.70;0.30;;;5.50;99.90;;;;;;5074874;28;20432;-59
2022/12/28 03:46:15;;;;;;;0.57;0.30;;;5.50;99.90;;;;;;5076046;28;20415;-59
2022/12/28 03:48:45;;;;;;;0.60;0.30;;;5.50;99.90;;;;;;5076294;28;20782;-59
2022/12/28 03:51:14;;;;;;;1.30;0.30;;;5.60;99.90;;;;;;5075647;28;20459;-59
2022/12/28 03:53:44;;;;;;;0.65;0.30;;;5.60;99.90;;;;;;5075393;28;20929;-59
2022/12/28 03:56:13;;;;;;;0.60;0.30;;;5.60;99.90;;;;;;5075804;28;20515;-59
2022/12/28 03:58:40;;;;;;;0.80;0.30;;;5.60;99.90;;;;;;5076544;28;20809;-59
2022/12/28 04:01:07;;;;;;;0.60;0.30;;;5.60;99.90;;;;;;5076062;28;20490;-60
2022/12/28 04:03:35;;;;;;;0.60;0.40;;;5.60;99.90;;;;;;5075478;28;20478;-59
2022/12/28 04:06:05;;;;;;;0.60;0.30;;;5.60;99.90;;;;;;5076219;28;20518;-59
2022/12/28 04:08:32;;;;;;;0.60;0.30;;;5.60;99.90;;;;;;5074984;28;20455;-58
2022/12/28 04:11:00;;;;;;;0.80;0.30;;;5.70;99.90;;;;;;5077185;28;20494;-58
2022/12/28 04:13:29;;;;;;;1.10;0.50;;;5.70;99.90;;;;;;5076625;28;20740;-61
2022/12/28 04:15:58;;;;;;;0.60;0.30;;;5.60;99.90;;;;;;5077257;28;20430;-60
2022/12/28 04:18:25;;;;;;;0.50;0.30;;;5.60;99.90;;;;;;5076696;28;20529;-59
2022/12/28 04:20:53;;;;;;;0.90;0.30;;;5.70;99.90;;;;;;5076608;28;20779;-59
2022/12/28 04:23:21;;;;;;;0.60;0.30;;;5.70;99.90;;;;;;5077169;28;20431;-59
2022/12/28 04:26:00;;;;;;;0.60;0.30;;;5.70;99.90;;;;;;5076288;28;20502;-59
2022/12/28 04:28:27;;;;;;;0.50;0.30;;;5.70;99.90;;;;;;5077234;28;20480;-59
2022/12/28 04:30:55;;;;;;;0.60;0.30;;;5.70;99.90;;;;;;5077644;28;20506;-59
2022/12/28 04:33:23;;;;;;;0.50;0.30;;;5.80;99.90;;;;;;5076812;28;20523;-59
2022/12/28 04:35:51;;;;;;;0.70;0.30;;;5.80;99.90;;;;;;5076952;28;20476;-60
2022/12/28 04:38:18;;;;;;;1.60;0.30;;;5.80;99.90;;;;;;5077358;28;20519;-60
2022/12/28 04:40:47;;;;;;;0.90;0.40;;;5.70;99.90;;;;;;5075909;28;20916;-59
2022/12/28 04:43:14;;;;;;;0.80;0.30;;;5.80;99.90;;;;;;5076297;28;20527;-60
2022/12/28 04:45:41;;;;;;;0.60;0.30;;;5.80;99.90;;;;;;5076460;28;20898;-60
2022/12/28 04:48:09;;;;;;;0.40;0.30;;;5.80;99.90;;;;;;5077210;28;20807;-60
2022/12/28 04:50:37;;;;;;;0.60;0.30;;;5.80;99.90;;;;;;5076749;28;20499;-60
2022/12/28 04:53:04;;;;;;;0.50;0.30;;;5.90;99.90;;;;;;5076712;28;20431;-60
2022/12/28 04:55:31;;;;;;;0.60;0.30;;;5.90;99.90;;;;;;5076802;28;20520;-59
2022/12/28 04:58:00;;;;;;;0.60;0.28;;;6.00;99.90;;;;;;5076900;28;20522;-60
2022/12/28 05:00:27;;;;;;;1.50;0.30;;;5.90;99.90;;;;;;5076687;28;20415;-59
2022/12/28 05:02:58;;;;;;;0.63;0.30;;;5.90;99.90;;;;;;5076082;28;20522;-60
2022/12/28 05:05:25;;;;;;;0.60;0.30;;;5.90;99.90;;;;;;5075430;28;20467;-60
2022/12/28 05:07:52;;;;;;;0.50;0.30;;;6.00;99.90;;;;;;5076462;28;20899;-60
2022/12/28 05:10:19;;;;;;;0.60;0.30;;;6.00;99.90;;;;;;5076777;28;20506;-60
2022/12/28 05:12:46;;;;;;;0.70;0.30;;;6.10;99.90;;;;;;5076370;28;20522;-60
2022/12/28 05:15:15;;;;;;;0.60;0.20;;;6.10;99.90;;;;;;5074808;28;20530;-59
2022/12/28 05:17:42;;;;;;;0.50;0.30;;;6.10;99.90;;;;;;5075204;28;20534;-59
2022/12/28 05:20:10;;;;;;;0.60;0.30;;;6.10;99.90;;;;;;5076267;28;20502;-58
2022/12/28 05:22:37;;;;;;;0.50;0.20;;;6.20;99.90;;;;;;5075353;28;20786;-58
2022/12/28 05:25:05;;;;;;;1.20;0.28;;;6.20;99.90;;;;;;5075124;28;20471;-58
2022/12/28 05:27:33;;;;;;;0.60;0.28;;;6.20;99.90;;;;;;5074501;28;20518;-57
2022/12/28 05:30:00;;;;;;;1.60;0.30;;;6.30;99.90;;;;;;5073127;28;20494;-58
2022/12/28 05:32:28;;;;;;;0.80;0.30;;;6.20;99.90;;;;;;5072385;28;20585;-57
2022/12/28 05:34:56;;;;;;;0.47;0.20;;;6.20;99.90;;;;;;5073453;28;20499;-59
2022/12/28 05:37:23;;;;;;;0.57;0.30;;;6.10;99.90;;;;;;5072996;28;20435;-59
2022/12/28 05:39:50;;;;;;;0.60;0.30;;;6.10;99.90;;;;;;5074768;28;20886;-58
2022/12/28 05:42:17;;;;;;;1.02;0.40;;;6.10;99.90;;;;;;5075784;28;20506;-58
2022/12/28 05:44:44;;;;;;;1.40;0.30;;;6.20;99.90;;;;;;5075539;28;20439;-58
2022/12/28 05:47:12;;;;;;;0.60;0.30;;;6.20;99.90;;;;;;5075832;28;20424;-60
2022/12/28 05:49:41;;;;;;;0.50;0.20;;;6.20;99.90;;;;;;5075411;28;20778;-59
2022/12/28 05:52:08;;;;;;;0.60;0.30;;;6.20;99.90;;;;;;5075535;28;20518;-59
2022/12/28 05:54:35;;;;;;;0.50;0.30;;;6.20;99.90;;;;;;5075037;28;20444;-59
2022/12/28 05:57:02;;;;;;;0.50;0.30;;;6.10;99.90;;;;;;5074286;28;20472;-60
2022/12/28 05:59:30;;;;;;;0.50;0.30;;;6.10;99.90;;;;;;5074694;28;20502;-59
2022/12/28 06:01:57;;;;;;;0.50;0.20;;;6.20;99.90;;;;;;5073766;28;20440;-59
2022/12/28 06:04:24;;;;;;;0.40;0.20;;;6.20;99.90;;;;;;5074228;28;20463;-60
2022/12/28 06:06:54;;;;;;;0.70;0.30;;;6.20;99.90;;;;;;5073898;28;20923;-60
2022/12/28 06:09:21;;;;;;;0.60;0.30;;;6.20;99.90;;;;;;5073454;28;20415;-60
2022/12/28 06:11:49;;;;;;;1.20;0.30;;;6.20;99.90;;;;;;5074801;28;20506;-59
2022/12/28 06:14:16;;;;;;;0.90;0.30;;;6.20;99.90;;;;;;5075032;28;20506;-60
2022/12/28 06:16:44;;;;;;;1.10;0.30;;;6.20;99.90;;;;;;5073317;28;20786;-60
2022/12/28 06:19:13;;;;;;;0.60;0.30;;;6.20;99.90;;;;;;5074907;28;20496;-60
2022/12/28 06:21:41;;;;;;;0.50;0.30;;;6.20;99.90;;;;;;5073013;28;20419;-61
2022/12/28 06:24:12;;;;;;;0.60;0.30;;;6.30;99.90;;;;;;5073794;28;20522;-60
2022/12/28 06:26:40;;;;;;;0.60;0.30;;;6.30;99.90;;;;;;5072648;28;20419;-60
2022/12/28 06:29:08;;;;;;;0.60;0.30;;;6.30;99.90;;;;;;5073397;28;20459;-60
2022/12/28 06:31:37;;;;;;;0.50;0.30;;;6.30;99.90;;;;;;5074750;28;20507;-60
2022/12/28 06:34:06;;;;;;;0.90;0.30;;;6.30;99.90;;;;;;5074114;28;20470;-59
2022/12/28 06:36:36;;;;;;;1.00;0.30;;;6.20;99.90;;;;;;5074109;28;20819;-60
2022/12/28 06:39:06;;;;;;;0.40;0.30;;;6.30;99.90;;;;;;5074037;28;20467;-60
2022/12/28 06:41:35;;;;;;;0.50;0.20;;;6.30;99.90;;;;;;5071957;28;20514;-60
2022/12/28 06:44:06;;;;;;;1.37;0.50;;;6.20;99.90;;;;;;5071641;28;20492;-60
2022/12/28 06:46:33;;;;;;;1.35;0.40;;;6.20;99.90;;;;;;5071778;28;20454;-59
2022/12/28 06:49:00;;;;;;;0.60;0.30;;;6.30;99.90;;;;;;5071565;28;20510;-60
2022/12/28 06:51:29;;;;;;;0.50;0.30;;;6.30;99.90;;;;;;5071700;28;20455;-60
2022/12/28 06:53:57;;;;;;;0.50;0.30;;;6.30;99.90;;;;;;5071894;28;20431;-60
2022/12/28 06:56:26;;;;;;;0.50;0.30;;;6.20;99.90;;;;;;5071968;28;20692;-60
2022/12/28 06:58:55;;;;;;;0.40;0.30;;;6.20;99.90;;;;;;5071914;28;20427;-60
2022/12/28 07:01:24;;;;;;;0.60;0.30;;;6.20;99.90;;;;;;5071244;28;20797;-61
2022/12/28 07:03:53;;;;;;;0.80;0.30;;;6.10;99.90;;;;;;5072044;28;20514;-60
2022/12/28 07:06:23;;;;;;;1.20;0.30;;;6.10;99.90;;;;;;5071467;28;20498;-60
2022/12/28 07:08:51;;;;;;;0.60;0.30;;;6.10;99.90;;;;;;5070610;28;20513;-60
2022/12/28 07:11:20;;;;;;;0.40;0.30;;;6.10;99.90;;;;;;5071523;28;20601;-60
2022/12/28 07:13:47;;;;;;;0.50;0.30;;;6.10;99.90;;;;;;5074372;28;20799;-59
2022/12/28 07:16:18;;;;;;;1.90;0.60;;;6.10;99.90;;;;;;5074758;28;20427;-59
2022/12/28 07:18:46;;;;;;;1.90;0.50;;;6.20;99.90;;;;;;5074901;28;20449;-59
2022/12/28 07:21:15;;;;;;;0.55;0.38;;;6.20;99.90;;;;;;5073965;28;20853;-60
2022/12/28 07:23:43;;;;;;;0.70;0.38;;;6.10;99.90;;;;;;5076308;28;20510;-60
2022/12/28 07:26:12;;;;;;;0.70;0.40;;;6.10;99.90;;;;;;5075418;28;20965;-60
2022/12/28 07:28:40;;;;;;;0.80;0.40;;;6.10;99.90;;;;;;5074742;28;20786;-59
2022/12/28 07:31:09;;;;;;;1.40;0.40;;;6.20;99.90;;;;;;5076028;28;20823;-60
2022/12/28 07:33:38;;;;;;;1.17;0.30;;;6.20;99.90;;;;;;5076079;28;20518;-60
2022/12/28 07:36:07;;;;;;;0.63;0.30;;;6.20;99.90;;;;;;5076209;28;20475;-60
2022/12/28 07:38:35;;;;;;;0.68;0.30;;;6.30;99.90;;;;;;5076469;28;20861;-59
2022/12/28 07:41:03;;;;;;;1.13;0.40;;;6.30;99.90;;;;;;5077329;28;20846;-60
2022/12/28 07:43:30;;;;;;;0.73;0.40;;;6.30;99.90;;;;;;5075448;28;20866;-60
2022/12/28 07:46:02;;;;;;;0.60;0.30;;;6.30;99.90;;;;;;5074601;28;20589;-60
2022/12/28 07:48:31;;;;;;;1.08;0.40;;;6.30;99.90;;;;;;5075451;28;20427;-60
2022/12/28 07:51:07;;;;;;;0.65;0.30;;;6.30;99.90;;;;;;5076726;28;20738;-60
2022/12/28 07:53:34;;;;;;;0.80;0.40;;;6.30;99.90;;;;;;5076513;28;20538;-60
2022/12/28 07:56:01;;;;;;;1.00;0.40;;;6.30;99.90;;;;;;5076811;28;20506;-61
2022/12/28 07:58:28;;;;;;;0.68;0.30;;;6.40;99.90;;;;;;5076016;28;20514;-60
2022/12/28 08:01:04;;;;;;;0.90;0.30;;;6.40;99.90;;;;;;5074289;28;20789;-60
2022/12/28 08:03:31;;;;;;;0.90;0.30;;;6.40;99.90;;;;;;5074137;28;20427;-61
2022/12/28 08:06:08;;;;;;;0.53;0.30;;;6.40;99.90;;;;;;5075401;28;20503;-61
2022/12/28 08:08:36;;;;;;;0.60;0.30;;;6.40;99.90;;;;;;5074892;28;20525;-60
2022/12/28 08:11:05;;;;;;;0.70;0.30;;;6.40;99.90;;;;;;5072647;28;20751;-60
2022/12/28 08:13:34;;;;;;;1.20;0.50;;;6.40;99.90;;;;;;5072102;28;20746;-60
2022/12/28 08:16:01;;;;;;;0.70;0.30;;;6.50;99.90;;;;;;5073523;28;20419;-61
2022/12/28 08:18:29;;;;;;;0.50;0.30;;;6.50;99.90;;;;;;5073038;28;20420;-60
2022/12/28 08:21:00;;;;;;;0.75;0.30;;;6.50;99.90;;;;;;5071421;28;20518;-60
2022/12/28 08:23:29;;;;;;;0.60;0.40;;;6.50;99.90;;;;;;5072446;28;20523;-60
2022/12/28 08:25:57;;;;;;;0.63;0.40;;;6.50;99.90;;;;;;5074946;28;20831;-60
2022/12/28 08:28:24;;;;;;;0.60;0.30;;;6.60;99.90;;;;;;5072690;28;20514;-60
2022/12/28 08:30:51;;;;;;;2.00;0.40;;;6.70;99.90;;;;;;5073276;28;20618;-59
2022/12/28 08:33:18;;;;;;;0.70;0.40;;;6.70;99.90;;;;;;5074097;28;20473;-60
2022/12/28 08:35:46;;;;;;;0.50;0.30;;;6.70;99.90;;;;;;5074394;28;20506;-59
2022/12/28 08:38:13;;;;;;;0.60;0.30;;;6.70;99.90;;;;;;5073175;28;20459;-49
2022/12/28 08:40:41;;;;;;;0.80;0.30;;;6.80;99.90;;;;;;5073754;28;20706;-55
2022/12/28 08:43:08;;;;;;;0.70;0.30;;;6.90;99.90;;;;;;5075209;28;20490;-52
2022/12/28 08:45:36;;;;;;;0.60;0.30;;;7.00;99.90;;;;;;5074385;28;20423;-51
2022/12/28 08:48:03;;;;;;;0.50;0.30;;;7.00;99.90;;;;;;5073117;28;20792;-53
2022/12/28 08:50:32;;;;;;;0.50;0.30;;;7.00;99.90;;;;;;5071758;28;20423;-52
2022/12/28 08:53:00;;;;;;;1.00;0.30;;;7.00;99.90;;;;;;5072440;28;20460;-50
2022/12/28 08:55:27;;;;;;;2.00;0.38;;;7.10;99.90;;;;;;5071411;28;20776;-52
2022/12/28 08:57:55;;;;;;;1.13;0.40;;;7.10;99.90;;;;;;5070878;28;20701;-55
2022/12/28 09:00:23;;;;;;;0.45;0.20;;;7.10;99.90;;;;;;5072041;28;20411;-54
2022/12/28 09:02:50;;;;;;;1.00;0.30;;;7.20;99.90;;;;;;5073176;28;20514;-51
2022/12/28 09:05:17;;;;;;;0.60;0.30;;;7.30;99.90;;;;;;5074764;28;20458;-53
2022/12/28 09:07:44;;;;;;;1.45;0.30;;;7.30;99.90;;;;;;5074115;28;20883;-51
2022/12/28 09:10:11;;;;;;;0.80;0.30;;;7.40;99.90;;;;;;5070244;28;20447;-52
2022/12/28 09:12:39;;;;;;;0.60;0.30;;;7.40;99.90;;;;;;5070960;28;20564;-51
2022/12/28 09:15:09;;;;;;;0.50;0.30;;;7.50;99.90;;;;;;5072904;28;20415;-50
2022/12/28 09:17:36;;;;;;;0.50;0.30;;;7.50;99.90;;;;;;5073141;28;20456;-52
2022/12/28 09:20:04;;;;;;;0.70;0.30;;;7.50;99.90;;;;;;5073923;28;20422;-49
2022/12/28 09:22:31;;;;;;;0.77;0.40;;;7.60;99.90;;;;;;5074316;28;20526;-51
2022/12/28 09:24:59;;;;;;;0.80;0.30;;;7.70;99.90;;;;;;5074834;28;20466;-50
2022/12/28 09:27:26;;;;;;;0.50;0.20;;;7.70;99.90;;;;;;5073938;28;20851;-49
2022/12/28 09:29:54;;;;;;;0.55;0.20;;;7.80;99.90;;;;;;5073807;28;20512;-50
2022/12/28 09:32:22;;;;;;;0.95;0.30;;;7.90;99.90;;;;;;5072699;28;20500;-54
2022/12/28 09:34:51;;;;;;;0.70;0.40;;;7.80;99.90;;;;;;5072998;28;20502;-51
2022/12/28 09:37:18;;;;;;;0.70;0.30;;;7.90;99.90;;;;;;5072967;28;20431;-49
2022/12/28 09:39:46;;;;;;;1.10;0.30;;;7.80;99.90;;;;;;5073831;28;20514;-51
2022/12/28 09:42:17;;;;;;;0.70;0.30;;;7.80;99.90;;;;;;5070738;28;20580;-53
2022/12/28 09:45:00;;;;;;;0.70;0.30;;;7.80;99.90;;;;;;5070687;28;20415;-53
2022/12/28 09:47:39;;;;;;;0.60;0.30;;;7.80;99.90;;;;;;5071574;28;20530;-52
2022/12/28 09:50:29;;;;;;;1.00;0.30;;;7.90;99.90;;;;;;5068518;28;20827;-50
2022/12/28 09:53:15;;;;;;;0.60;0.30;;;7.90;99.90;;;;;;5068884;28;20451;-51
2022/12/28 09:55:45;;;;;;;0.50;0.30;;;8.00;99.90;;;;;;5065830;28;20786;-53
2022/12/28 09:58:16;;;;;;;0.60;0.30;;;8.10;99.90;;;;;;5067363;28;20633;-49
2022/12/28 10:00:46;;;;;;;0.60;0.30;;;8.10;99.90;;;;;;5068915;28;20813;-52
2022/12/28 10:03:19;;;;;;;0.73;0.30;;;8.10;99.90;;;;;;5066725;28;20434;-50
2022/12/28 10:05:47;;;;;;;0.60;0.30;;;8.20;99.90;;;;;;5068972;28;20556;-52
2022/12/28 10:08:17;;;;;;;0.60;0.30;;;8.20;99.90;;;;;;5072715;28;20498;-52
2022/12/28 10:10:46;;;;;;;0.60;0.30;;;8.30;99.90;;;;;;5073111;28;20526;-51
2022/12/28 10:13:17;;;;;;;2.10;0.30;;;8.40;99.90;;;;;;5073563;28;20851;-54
2022/12/28 10:15:45;;;;;;;0.50;0.20;;;8.50;99.90;;;;;;5073938;28;20490;-55
2022/12/28 10:18:15;;;;;;;0.57;0.30;;;8.60;99.90;;;;;;5075005;28;20424;-53
2022/12/28 10:20:44;;;;;;;0.80;0.30;;;8.80;99.90;;;;;;5073275;28;20463;-50
2022/12/28 10:23:17;;;;;;;0.50;0.22;;;8.90;99.90;;;;;;5072982;28;20506;-59
2022/12/28 10:25:46;;;;;;;0.70;0.30;;;8.90;99.90;;;;;;5073753;28;20466;-59
2022/12/28 10:28:16;;;;;;;1.10;0.40;;;8.90;99.90;;;;;;5073205;28;20902;-58
2022/12/28 10:30:48;;;;;;;0.70;0.40;;;9.00;99.90;;;;;;5073376;28;20510;-59
2022/12/28 10:33:19;;;;;;;0.60;0.30;;;9.00;99.90;;;;;;5071252;28;20514;-59
2022/12/28 10:35:52;;;;;;;0.90;0.30;;;9.10;99.90;;;;;;5070554;28;20517;-58
2022/12/28 10:38:24;;;;;;;0.70;0.30;;;9.20;99.90;;;;;;5073047;28;20808;-60
2022/12/28 10:41:00;;;;;;;0.60;0.40;;;9.40;99.90;;;;;;5071540;28;20523;-60
2022/12/28 10:43:34;;;;;;;1.50;0.30;;;9.60;99.90;;;;;;5071150;28;20423;-60
2022/12/28 10:46:04;;;;;;;0.70;0.30;;;9.60;99.90;;;;;;5070992;28;20427;-60
2022/12/28 10:48:36;;;;;;;0.50;0.30;;;9.70;99.90;;;;;;5070866;28;20465;-62
2022/12/28 10:51:12;;;;;;;0.60;0.30;;;9.70;99.90;;;;;;5073793;28;20526;-59
2022/12/28 10:53:44;;;;;;;0.50;0.30;;;9.70;99.90;;;;;;5072432;28;20505;-60
2022/12/28 10:56:25;;;;;;;0.40;0.30;;;9.70;99.90;;;;;;5062630;28;20500;-60
2022/12/28 10:58:54;;;;;;;0.50;0.20;;;9.80;99.90;;;;;;5067071;28;20429;-60
2022/12/28 11:01:26;;;;;;;0.50;0.30;;;9.80;99.90;;;;;;5064049;28;20768;-60
2022/12/28 11:04:16;;;;;;;0.60;0.30;;;9.80;99.90;;;;;;5068460;28;20415;-60
2022/12/28 11:06:53;;;;;;;0.50;0.25;;;9.80;99.90;;;;;;5065331;28;20437;-59
2022/12/28 11:09:23;;;;;;;0.50;0.20;;;9.90;99.90;;;;;;5063211;28;20521;-58
2022/12/28 11:11:52;;;;;;;0.70;0.30;;;10.00;99.90;;;;;;5067866;28;20458;-61
2022/12/28 11:14:29;;;;;;;0.50;0.20;;;10.10;99.90;;;;;;5063570;28;21028;-59
2022/12/28 11:16:57;;;;;;;0.50;0.30;;;10.10;99.90;;;;;;5070718;28;20428;-58
2022/12/28 11:19:26;;;;;;;0.40;0.20;;;10.10;99.90;;;;;;5064483;28;20433;-59
2022/12/28 11:21:53;;;;;;;0.55;0.22;;;10.00;99.90;;;;;;5069013;28;20468;-59
2022/12/28 11:24:26;;;;;;;0.40;0.20;;;9.90;99.90;;;;;;5064794;28;20856;-60
2022/12/28 11:26:54;;;;;;;0.95;0.20;;;9.90;99.90;;;;;;5069260;28;20428;-60
2022/12/28 11:29:21;;;;;;;0.70;0.30;;;9.90;99.90;;;;;;5064707;28;20801;-61
2022/12/28 11:31:52;;;;;;;0.50;0.20;;;9.80;99.90;;;;;;5068019;28;20449;-61
2022/12/28 11:34:22;;;;;;;0.80;0.20;;;9.80;99.90;;;;;;5063611;28;20429;-61
2022/12/28 11:36:51;;;;;;;0.93;0.30;;;9.80;99.90;;;;;;5069807;28;20498;-61
2022/12/28 11:39:33;;;;;;;0.90;0.20;;;9.80;99.90;;;;;;5064502;28;20792;-61
2022/12/28 11:42:01;;;;;;;0.40;0.20;;;9.80;99.90;;;;;;5066443;28;20426;-61
2022/12/28 11:44:51;;;;;;;0.80;0.20;;;9.70;99.90;;;;;;5071838;28;20423;-60
2022/12/28 11:47:31;;;;;;;0.40;0.20;;;9.80;99.90;;;;;;5072395;28;20518;-60
2022/12/28 11:50:32;;;;;;;0.40;0.20;;;9.80;99.90;;;;;;5069906;28;20415;-61
2022/12/28 11:53:02;;;;;;;0.68;0.30;;;9.80;99.90;;;;;;5071867;28;20699;-60
2022/12/28 11:55:48;;;;;;;1.10;0.20;;;9.90;99.90;;;;;;5072159;28;20538;-61
2022/12/28 11:58:53;;;;;;;0.75;0.20;;;9.90;99.90;;;;;;5072105;28;20495;-60
2022/12/28 12:01:43;;;;;;;0.47;0.25;;;9.90;99.90;;;;;;5074525;28;20426;-60
2022/12/28 12:04:28;;;;;;;0.45;0.20;;;9.90;99.90;;;;;;5069420;28;20425;-60
2022/12/28 12:07:40;;;;;;;1.30;0.28;;;10.00;99.90;;;;;;5075877;28;20493;-59
2022/12/28 12:10:33;;;;;;;0.50;0.20;;;10.00;99.90;;;;;;5038410;28;20546;-60
2022/12/28 12:13:16;;;;;;;0.60;0.20;;;10.00;99.90;;;;;;5071851;28;20423;-60
2022/12/28 12:15:45;;;;;;;0.50;0.20;;;10.00;99.90;;;;;;5060789;28;20796;-61
2022/12/28 12:18:19;;;;;;;1.60;0.20;;;9.90;99.90;;;;;;5073678;28;20424;-61
2022/12/28 12:20:54;;;;;;;1.23;0.30;;;9.90;99.90;;;;;;5066246;28;20719;-61
2022/12/28 12:23:39;;;;;;;0.50;0.28;;;9.90;99.90;;;;;;5072893;28;20810;-60
2022/12/28 12:26:27;;;;;;;0.70;0.20;;;9.90;99.90;;;;;;5073264;28;20434;-60
2022/12/28 12:28:58;;;;;;;0.70;0.30;;;9.90;99.90;;;;;;5050861;28;20932;-60
2022/12/28 12:31:30;;;;;;;0.50;0.30;;;10.10;99.90;;;;;;5055222;28;20481;-61
2022/12/28 12:34:05;;;;;;;0.73;0.20;;;10.20;99.90;;;;;;5055989;28;20507;-61
2022/12/28 12:37:05;;;;;;;0.70;0.20;;;10.30;99.90;;;;;;5053799;28;20701;-61
2022/12/28 12:40:00;;;;;;;1.60;0.20;;;10.40;99.90;;;;;;5052159;28;20554;-62
2022/12/28 12:42:36;;;;;;;0.50;0.20;;;10.50;99.90;;;;;;5054793;28;20414;-62
2022/12/28 12:45:13;;;;;;;0.40;0.20;;;10.50;99.90;;;;;;5053689;28;20433;-62
2022/12/28 12:48:15;;;;;;;0.40;0.20;;;10.60;99.90;;;;;;5053633;28;20426;-61
2022/12/28 12:51:04;;;;;;;0.40;0.20;;;10.60;99.90;;;;;;5033077;28;20441;-61
2022/12/28 12:53:48;;;;;;;0.50;0.20;;;10.60;99.90;;;;;;5052250;28;20417;-61
2022/12/28 12:56:29;;;;;;;0.50;0.20;;;10.60;99.90;;;;;;5053886;28;20504;-61
2022/12/28 12:59:20;;;;;;;1.00;0.20;;;10.50;99.90;;;;;;5052340;28;20438;-61
2022/12/28 13:01:55;;;;;;;1.25;0.20;;;10.40;99.90;;;;;;5052957;28;20508;-61
2022/12/28 13:04:26;;;;;;;0.52;0.20;;;10.30;99.90;;;;;;5052375;28;20584;-61
2022/12/28 13:06:57;;;;;;;0.60;0.30;;;10.30;99.90;;;;;;5051587;28;20524;-61
2022/12/28 13:09:27;;;;;;;0.70;0.20;;;10.40;99.90;;;;;;5051481;28;20421;-61
2022/12/28 13:11:55;;;;;;;0.50;0.20;;;10.50;99.90;;;;;;5050710;28;20509;-62
2022/12/28 13:14:25;;;;;;;0.50;0.30;;;10.40;99.90;;;;;;5063365;28;20435;-63
2022/12/28 13:16:54;;;;;;;0.57;0.30;;;10.40;99.90;;;;;;5073291;28;20782;-62
2022/12/28 13:19:24;;;;;;;0.60;0.30;;;10.30;99.90;;;;;;5073378;28;20439;-62
2022/12/28 13:21:54;;;;;;;1.80;0.30;;;10.20;99.90;;;;;;5074648;28;20506;-63
2022/12/28 13:24:23;;;;;;;0.40;0.30;;;10.20;99.90;;;;;;5065357;28;20440;-62
2022/12/28 13:26:51;;;;;;;0.40;0.20;;;10.20;99.90;;;;;;5069437;28;20680;-63
2022/12/28 13:29:22;;;;;;;0.50;0.20;;;10.10;99.90;;;;;;5065034;28;20673;-62
2022/12/28 13:31:51;;;;;;;0.40;0.20;;;10.00;99.90;;;;;;5070980;28;20503;-63
2022/12/28 13:34:21;;;;;;;1.05;0.30;;;9.90;99.90;;;;;;5068717;28;20658;-63
2022/12/28 13:36:50;;;;;;;0.90;0.30;;;9.80;99.90;;;;;;5067242;28;20416;-63
2022/12/28 13:39:19;;;;;;;0.70;0.30;;;9.90;99.90;;;;;;5060091;28;20528;-62
2022/12/28 13:41:51;;;;;;;0.50;0.30;;;9.90;99.90;;;;;;5064528;28;20501;-62
2022/12/28 13:44:32;;;;;;;0.57;0.30;;;9.90;99.90;;;;;;5073118;28;20439;-62